createdAt,value
2023-05-09T00:00:08.150Z,64.55
2023-05-09T00:01:08.905Z,64.45
2023-05-09T00:02:09.124Z,64.07
2023-05-09T00:03:09.248Z,64.58
2023-05-09T00:04:09.877Z,64.79
2023-05-09T00:05:14.022Z,65.39
2023-05-09T00:06:09.792Z,65.91
2023-05-09T00:07:10.900Z,66.65
2023-05-09T00:08:10.577Z,69.09
2023-05-09T00:09:09.800Z,69.29
2023-05-09T00:10:10.411Z,68.82
2023-05-09T00:11:10.537Z,69.73
2023-05-09T00:12:10.653Z,71.87
2023-05-09T00:13:10.800Z,73.74
2023-05-09T00:14:10.961Z,74.55
2023-05-09T00:15:10.864Z,75.10
2023-05-09T00:16:11.618Z,73.67
2023-05-09T00:17:12.358Z,74.58
2023-05-09T00:18:11.958Z,75.54
2023-05-09T00:19:12.377Z,76.05
2023-05-09T00:21:26.450Z,77.11
2023-05-09T00:22:29.037Z,77.00
2023-05-09T00:23:27.612Z,76.29
2023-05-09T00:24:28.767Z,76.59
2023-05-09T00:25:28.934Z,75.98
2023-05-09T00:26:27.071Z,76.80
2023-05-09T00:27:27.282Z,77.62
2023-05-09T00:28:27.951Z,76.43
2023-05-09T00:29:27.874Z,76.70
2023-05-09T00:30:28.018Z,76.63
2023-05-09T00:31:28.702Z,76.02
2023-05-09T00:32:30.355Z,76.63
2023-05-09T00:33:29.542Z,76.93
2023-05-09T00:34:31.993Z,76.73
2023-05-09T00:35:32.172Z,76.73
2023-05-09T00:36:32.280Z,76.43
2023-05-09T00:37:31.144Z,76.32
2023-05-09T00:38:31.778Z,76.73
2023-05-09T00:39:29.956Z,77.45
2023-05-09T00:40:31.043Z,77.55
2023-05-09T00:41:30.258Z,77.86
2023-05-09T00:42:32.454Z,77.14
2023-05-09T00:43:31.594Z,76.16
2023-05-09T00:44:30.813Z,76.46
2023-05-09T00:45:33.642Z,77.08
2023-05-09T00:46:31.300Z,77.79
2023-05-09T00:47:32.332Z,77.69
2023-05-09T00:48:31.531Z,78.50
2023-05-09T00:49:31.804Z,78.85
2023-05-09T00:50:31.988Z,79.36
2023-05-09T00:51:34.271Z,78.95
2023-05-09T00:52:34.376Z,79.46
2023-05-09T00:53:32.511Z,80.58
2023-05-09T00:54:34.714Z,81.60
2023-05-09T00:55:34.310Z,81.13
2023-05-09T00:56:35.035Z,81.20
2023-05-09T00:57:33.228Z,82.01
2023-05-09T00:58:33.428Z,81.40
2023-05-09T00:59:34.672Z,81.10
2023-05-09T01:00:34.800Z,81.34
2023-05-09T01:01:33.981Z,81.24
2023-05-09T01:02:34.360Z,81.65
2023-05-09T01:03:37.582Z,82.36
2023-05-09T01:04:36.842Z,82.36
2023-05-09T01:05:39.787Z,82.15
2023-05-09T01:06:35.054Z,83.69
2023-05-09T01:07:36.626Z,83.69
2023-05-09T01:08:37.227Z,83.28
2023-05-09T01:09:38.425Z,83.28
2023-05-09T01:10:36.522Z,83.01
2023-05-09T01:11:35.699Z,83.42
2023-05-09T01:12:36.969Z,83.93
2023-05-09T01:13:38.115Z,84.34
2023-05-09T01:14:38.233Z,84.44
2023-05-09T01:15:39.064Z,84.14
2023-05-09T01:16:38.220Z,84.34
2023-05-09T01:17:36.917Z,84.55
2023-05-09T01:18:37.179Z,85.20
2023-05-09T01:19:37.301Z,85.61
2023-05-09T01:20:37.512Z,85.61
2023-05-09T01:21:37.649Z,86.02
2023-05-09T01:22:37.844Z,85.91
2023-05-09T01:23:40.254Z,85.71
2023-05-09T01:24:39.853Z,85.71
2023-05-09T01:25:40.492Z,86.32
2023-05-09T01:26:39.754Z,86.77
2023-05-09T01:27:39.894Z,87.08
2023-05-09T01:28:40.948Z,87.18
2023-05-09T01:29:41.092Z,87.08
2023-05-09T01:30:41.226Z,86.77
2023-05-09T01:31:42.171Z,86.67
2023-05-09T01:32:40.497Z,86.46
2023-05-09T01:33:41.629Z,87.43
2023-05-09T01:34:42.419Z,87.94
2023-05-09T01:35:45.656Z,88.35
2023-05-09T01:36:41.279Z,88.35
2023-05-09T01:37:41.427Z,88.24
2023-05-09T01:38:43.524Z,88.14
2023-05-09T01:39:40.747Z,88.24
2023-05-09T01:40:42.873Z,88.35
2023-05-09T01:41:41.629Z,88.35
2023-05-09T01:42:41.296Z,88.45
2023-05-09T01:43:43.477Z,88.76
2023-05-09T01:44:41.609Z,89.00
2023-05-09T01:45:42.173Z,88.90
2023-05-09T01:46:41.888Z,88.90
2023-05-09T01:47:44.088Z,89.51
2023-05-09T01:48:43.192Z,89.83
2023-05-09T01:49:44.509Z,89.83
2023-05-09T01:50:42.663Z,89.83
2023-05-09T01:51:44.031Z,89.72
2023-05-09T01:52:43.372Z,89.72
2023-05-09T01:53:44.541Z,89.83
2023-05-09T01:54:43.717Z,90.03
2023-05-09T01:55:45.838Z,90.23
2023-05-09T01:56:44.133Z,90.13
2023-05-09T01:57:44.351Z,90.13
2023-05-09T01:58:45.514Z,90.13
2023-05-09T01:59:44.780Z,90.34
2023-05-09T02:00:45.900Z,90.99
2023-05-09T02:01:48.699Z,91.61
2023-05-09T02:02:47.545Z,91.40
2023-05-09T02:03:48.648Z,91.82
2023-05-09T02:04:46.251Z,91.61
2023-05-09T02:05:50.548Z,91.50
2023-05-09T02:06:48.668Z,91.40
2023-05-09T02:07:48.037Z,91.40
2023-05-09T02:08:47.206Z,91.55
2023-05-09T02:09:47.421Z,92.16
2023-05-09T02:10:48.138Z,92.78
2023-05-09T02:11:47.989Z,92.78
2023-05-09T02:12:48.191Z,92.57
2023-05-09T02:13:48.930Z,92.27
2023-05-09T02:14:50.611Z,92.06
2023-05-09T02:15:50.786Z,92.06
2023-05-09T02:16:51.536Z,92.06
2023-05-09T02:17:50.246Z,92.21
2023-05-09T02:18:49.431Z,92.31
2023-05-09T02:19:49.575Z,92.51
2023-05-09T02:20:49.817Z,93.44
2023-05-09T02:21:49.979Z,93.64
2023-05-09T02:22:52.673Z,93.54
2023-05-09T02:23:50.347Z,93.44
2023-05-09T02:24:52.457Z,93.95
2023-05-09T02:25:52.613Z,93.95
2023-05-09T02:26:50.753Z,94.05
2023-05-09T02:27:50.923Z,93.85
2023-05-09T02:28:52.843Z,93.44
2023-05-09T02:29:53.470Z,93.23
2023-05-09T02:30:51.765Z,93.54
2023-05-09T02:31:53.983Z,93.44
2023-05-09T02:32:54.280Z,93.54
2023-05-09T02:33:54.453Z,94.26
2023-05-09T02:34:52.669Z,94.46
2023-05-09T02:35:54.834Z,94.36
2023-05-09T02:36:54.984Z,94.15
2023-05-09T02:38:00.935Z,94.77
2023-05-09T02:38:53.657Z,95.18
2023-05-09T02:39:53.877Z,94.98
2023-05-09T02:40:54.983Z,94.98
2023-05-09T02:41:54.153Z,95.07
2023-05-09T02:42:55.272Z,95.07
2023-05-09T02:43:54.451Z,94.87
2023-05-09T02:44:56.639Z,94.77
2023-05-09T02:45:56.953Z,94.92
2023-05-09T02:46:56.936Z,95.18
2023-05-09T02:47:55.649Z,95.28
2023-05-09T02:48:56.096Z,95.18
2023-05-09T02:49:57.325Z,95.07
2023-05-09T02:50:58.066Z,95.28
2023-05-09T02:51:57.131Z,95.28
2023-05-09T02:52:56.808Z,95.23
2023-05-09T02:53:58.453Z,94.81
2023-05-09T02:54:57.134Z,94.61
2023-05-09T02:55:59.404Z,94.51
2023-05-09T02:56:57.554Z,94.71
2023-05-09T02:58:12.776Z,94.92
2023-05-09T02:58:58.135Z,94.92
2023-05-09T02:59:58.328Z,95.17
2023-05-09T03:01:00.474Z,95.17
2023-05-09T03:02:00.167Z,95.17
2023-05-09T03:02:59.824Z,95.68
2023-05-09T03:03:59.106Z,96.09
2023-05-09T03:05:03.123Z,96.19
2023-05-09T03:05:59.828Z,96.40
2023-05-09T03:07:02.056Z,96.30
2023-05-09T03:08:02.497Z,95.98
2023-05-09T03:09:00.657Z,95.68
2023-05-09T03:10:03.873Z,95.78
2023-05-09T03:11:01.012Z,95.78
2023-05-09T03:12:03.226Z,95.68
2023-05-09T03:13:02.911Z,95.68
2023-05-09T03:14:02.712Z,96.19
2023-05-09T03:15:03.834Z,96.70
2023-05-09T03:16:02.045Z,96.70
2023-05-09T03:17:04.115Z,96.40
2023-05-09T03:18:03.364Z,96.19
2023-05-09T03:19:03.629Z,96.40
2023-05-09T03:20:04.237Z,96.81
2023-05-09T03:21:03.233Z,96.81
2023-05-09T03:22:05.420Z,96.60
2023-05-09T03:23:03.579Z,96.65
2023-05-09T03:24:05.168Z,96.95
2023-05-09T03:25:03.913Z,96.95
2023-05-09T03:26:04.081Z,96.95
2023-05-09T03:27:04.269Z,97.27
2023-05-09T03:28:06.448Z,97.47
2023-05-09T03:29:04.625Z,97.27
2023-05-09T03:30:04.826Z,96.85
2023-05-09T03:31:06.987Z,96.80
2023-05-09T03:32:07.182Z,97.00
2023-05-09T03:33:05.368Z,97.31
2023-05-09T03:34:05.541Z,97.52
2023-05-09T03:35:06.683Z,97.62
2023-05-09T03:36:07.877Z,97.92
2023-05-09T03:37:08.049Z,98.33
2023-05-09T03:38:08.695Z,98.33
2023-05-09T03:39:06.335Z,97.72
2023-05-09T03:40:06.581Z,97.52
2023-05-09T03:41:06.741Z,97.52
2023-05-09T03:42:08.908Z,97.62
2023-05-09T03:43:07.119Z,97.72
2023-05-09T03:44:07.258Z,98.13
2023-05-09T03:45:07.438Z,98.33
2023-05-09T03:46:07.577Z,98.13
2023-05-09T03:47:09.770Z,97.97
2023-05-09T03:48:12.647Z,98.65
2023-05-09T03:49:08.360Z,98.96
2023-05-09T03:50:10.623Z,98.65
2023-05-09T03:51:08.799Z,98.33
2023-05-09T03:52:10.494Z,98.33
2023-05-09T03:53:09.143Z,98.59
2023-05-09T03:54:11.301Z,98.69
2023-05-09T03:55:12.010Z,98.69
2023-05-09T03:56:10.364Z,98.69
2023-05-09T03:57:10.033Z,98.59
2023-05-09T03:58:10.983Z,98.59
2023-05-09T03:59:10.660Z,98.59
2023-05-09T04:00:12.769Z,98.79
2023-05-09T04:01:11.959Z,99.00
2023-05-09T04:02:11.141Z,99.10
2023-05-09T04:03:12.483Z,99.21
2023-05-09T04:04:12.152Z,99.41
2023-05-09T04:05:13.990Z,99.51
2023-05-09T04:06:13.297Z,99.82
2023-05-09T04:07:14.104Z,99.99
2023-05-09T04:08:12.823Z,99.99
2023-05-09T04:09:14.039Z,99.99
2023-05-09T04:10:13.200Z,99.98
2023-05-09T04:11:14.337Z,99.57
2023-05-09T04:12:13.483Z,99.05
2023-05-09T04:13:14.612Z,98.75
2023-05-09T04:14:13.781Z,98.85
2023-05-09T04:15:15.565Z,98.85
2023-05-09T04:16:14.459Z,98.96
2023-05-09T04:17:15.718Z,98.85
2023-05-09T04:18:14.893Z,98.75
2023-05-09T04:19:15.087Z,99.01
2023-05-09T04:20:15.865Z,99.21
2023-05-09T04:21:15.524Z,98.91
2023-05-09T04:22:15.902Z,98.70
2023-05-09T04:23:16.059Z,98.80
2023-05-09T04:24:16.230Z,98.70
2023-05-09T04:25:18.143Z,98.70
2023-05-09T04:26:17.802Z,99.01
2023-05-09T04:27:16.948Z,99.17
2023-05-09T04:28:17.155Z,98.55
2023-05-09T04:29:18.822Z,98.35
2023-05-09T04:30:17.496Z,98.04
2023-05-09T04:31:20.863Z,98.04
2023-05-09T04:32:20.444Z,98.04
2023-05-09T04:33:18.167Z,98.25
2023-05-09T04:34:20.313Z,97.99
2023-05-09T04:35:23.132Z,97.58
2023-05-09T04:36:19.028Z,97.07
2023-05-09T04:37:20.136Z,96.97
2023-05-09T04:38:19.270Z,96.87
2023-05-09T04:39:21.398Z,96.72
2023-05-09T04:40:20.445Z,96.51
2023-05-09T04:41:19.629Z,96.37
2023-05-09T04:42:19.835Z,96.42
2023-05-09T04:43:22.468Z,96.42
2023-05-09T04:44:21.067Z,95.36
2023-05-09T04:45:22.193Z,93.57
2023-05-09T04:46:24.975Z,92.81
2023-05-09T04:47:22.866Z,92.10
2023-05-09T04:48:21.281Z,91.85
2023-05-09T04:49:22.401Z,92.11
2023-05-09T04:50:22.554Z,92.21
2023-05-09T04:51:21.734Z,91.05
2023-05-09T04:52:21.900Z,90.70
2023-05-09T04:53:24.030Z,88.85
2023-05-09T04:54:23.978Z,87.08
2023-05-09T04:55:22.619Z,86.63
2023-05-09T04:56:22.791Z,86.63
2023-05-09T04:57:22.957Z,87.10
2023-05-09T04:58:24.573Z,87.20
2023-05-09T04:59:25.226Z,86.96
2023-05-09T05:00:24.855Z,86.76
2023-05-09T05:01:25.513Z,86.10
2023-05-09T05:02:25.803Z,81.88
2023-05-09T05:03:23.966Z,82.60
2023-05-09T05:04:24.121Z,80.46
2023-05-09T05:05:37.518Z,79.00
2023-05-09T05:06:26.573Z,79.00
2023-05-09T05:07:26.322Z,78.80
2023-05-09T05:08:24.970Z,78.69
2023-05-09T05:09:25.109Z,78.49
2023-05-09T05:10:26.739Z,77.87
2023-05-09T05:11:26.295Z,77.53
2023-05-09T05:12:26.910Z,77.23
2023-05-09T05:13:25.697Z,76.79
2023-05-09T05:14:26.888Z,76.38
2023-05-09T05:15:30.039Z,75.33
2023-05-09T05:16:27.765Z,75.33
2023-05-09T05:17:27.423Z,74.88
2023-05-09T05:18:26.662Z,74.38
2023-05-09T05:19:27.345Z,74.07
2023-05-09T05:20:28.516Z,74.24
2023-05-09T05:21:28.144Z,74.34
2023-05-09T05:22:32.774Z,73.83
2023-05-09T05:23:28.376Z,73.80
2023-05-09T05:24:29.017Z,73.60
2023-05-09T05:25:28.983Z,73.39
2023-05-09T05:26:29.616Z,73.06
2023-05-09T05:27:29.780Z,72.65
2023-05-09T05:28:30.083Z,72.45
2023-05-09T05:29:30.343Z,72.55
2023-05-09T05:30:32.763Z,73.06
2023-05-09T05:31:30.005Z,73.16
2023-05-09T05:32:31.952Z,72.72
2023-05-09T05:33:31.242Z,72.82
2023-05-09T05:34:32.100Z,72.61
2023-05-09T05:35:36.747Z,72.08
2023-05-09T05:36:32.439Z,71.77
2023-05-09T05:37:34.506Z,71.77
2023-05-09T05:38:32.634Z,71.77
2023-05-09T05:39:33.165Z,71.03
2023-05-09T05:40:32.930Z,70.62
2023-05-09T05:41:33.319Z,70.12
2023-05-09T05:42:34.010Z,70.01
2023-05-09T05:43:34.424Z,70.32
2023-05-09T05:44:35.693Z,69.48
2023-05-09T05:45:36.140Z,69.17
2023-05-09T05:46:34.997Z,68.26
2023-05-09T05:47:36.453Z,67.93
2023-05-09T05:48:35.789Z,67.93
2023-05-09T05:49:36.279Z,67.32
2023-05-09T05:50:38.222Z,66.67
2023-05-09T05:51:41.485Z,66.88
2023-05-09T05:52:36.724Z,66.64
2023-05-09T05:53:40.477Z,66.55
2023-05-09T05:54:40.527Z,66.21
2023-05-09T05:55:48.268Z,65.81
2023-05-09T05:56:38.714Z,65.20
2023-05-09T05:57:38.562Z,65.47
2023-05-09T05:58:40.212Z,65.27
2023-05-09T05:59:39.265Z,64.33
2023-05-09T06:00:38.685Z,64.13
2023-05-09T06:01:39.565Z,63.62
2023-05-09T06:02:41.623Z,64.00
2023-05-09T06:03:41.515Z,63.16
2023-05-09T06:04:40.839Z,63.06
2023-05-09T06:05:47.837Z,62.76
2023-05-09T06:06:39.949Z,62.22
2023-05-09T06:07:41.607Z,61.79
2023-05-09T06:08:40.082Z,61.29
2023-05-09T06:09:48.468Z,60.85
2023-05-09T06:10:41.787Z,60.42
2023-05-09T06:11:40.692Z,59.92
2023-05-09T06:12:41.819Z,59.89
2023-05-09T06:13:48.703Z,60.09
2023-05-09T06:14:44.302Z,59.69
2023-05-09T06:15:42.850Z,59.36
2023-05-09T06:16:42.971Z,59.16
2023-05-09T06:17:41.968Z,59.06
2023-05-09T06:18:43.242Z,58.42
2023-05-09T06:19:44.244Z,58.53
2023-05-09T06:20:43.375Z,58.20
2023-05-09T06:21:49.500Z,57.29
2023-05-09T06:22:44.219Z,57.26
2023-05-09T06:24:04.316Z,56.56
2023-05-09T06:24:51.292Z,56.54
2023-05-09T06:25:46.211Z,56.54
2023-05-09T06:26:44.712Z,56.46
2023-05-09T06:28:08.274Z,57.17
2023-05-09T06:28:54.476Z,57.44
2023-05-09T06:29:46.260Z,57.17
2023-05-09T06:30:45.474Z,58.27
2023-05-09T06:32:03.504Z,58.20
2023-05-09T06:32:45.643Z,58.70
2023-05-09T06:33:45.125Z,58.29
2023-05-09T06:34:47.357Z,57.87
2023-05-09T06:35:49.905Z,58.27
2023-05-09T06:37:04.012Z,56.26
2023-05-09T06:37:49.177Z,56.49
2023-05-09T06:38:47.974Z,57.19
2023-05-09T06:39:52.040Z,57.12
2023-05-09T06:40:52.520Z,57.02
2023-05-09T06:41:49.353Z,57.92
2023-05-09T06:42:52.101Z,58.53
2023-05-09T06:43:49.902Z,58.42
2023-05-09T06:44:49.778Z,58.02
2023-05-09T06:45:49.964Z,57.02
2023-05-09T06:46:49.816Z,56.84
2023-05-09T06:47:50.121Z,57.75
2023-05-09T06:48:51.070Z,57.24
2023-05-09T06:49:51.023Z,56.92
2023-05-09T06:50:51.372Z,57.12
2023-05-09T06:51:51.783Z,57.72
2023-05-09T06:52:52.186Z,56.51
2023-05-09T06:53:51.632Z,57.85
2023-05-09T06:54:54.048Z,57.55
2023-05-09T06:55:53.289Z,57.65
2023-05-09T06:56:53.320Z,58.25
2023-05-09T06:57:54.720Z,57.24
2023-05-09T06:58:53.668Z,57.65
2023-05-09T06:59:53.883Z,58.12
2023-05-09T07:00:54.278Z,57.72
2023-05-09T07:01:57.939Z,57.22
2023-05-09T07:02:55.084Z,56.71
2023-05-09T07:04:06.148Z,57.32
2023-05-09T07:07:22.940Z,57.19
2023-05-09T07:08:24.729Z,56.38
2023-05-09T07:10:56.930Z,56.16
2023-05-09T07:11:59.023Z,56.49
2023-05-09T07:12:58.894Z,56.89
2023-05-09T07:13:58.951Z,57.39
2023-05-09T07:14:57.916Z,56.96
2023-05-09T07:15:58.374Z,57.26
2023-05-09T07:17:13.828Z,56.96
2023-05-09T07:18:02.656Z,56.86
2023-05-09T07:18:59.179Z,57.34
2023-05-09T07:19:58.910Z,56.63
2023-05-09T07:21:01.193Z,57.11
2023-05-09T07:22:00.019Z,56.41
2023-05-09T07:23:03.703Z,55.51
2023-05-09T07:23:59.876Z,56.01
2023-05-09T07:24:59.531Z,56.30
2023-05-09T07:25:59.824Z,55.60
2023-05-09T07:27:01.002Z,56.41
2023-05-09T07:28:00.208Z,57.08
2023-05-09T07:29:04.547Z,55.78
2023-05-09T07:30:00.637Z,56.08
2023-05-09T07:31:04.538Z,55.91
2023-05-09T07:32:02.421Z,55.91
2023-05-09T07:33:04.874Z,56.78
2023-05-09T07:34:06.499Z,56.18
2023-05-09T07:36:49.157Z,56.38
2023-05-09T07:37:55.176Z,55.98
2023-05-09T07:38:46.843Z,55.68
2023-05-09T07:39:49.170Z,55.85
2023-05-09T07:40:46.516Z,55.85
2023-05-09T07:41:48.665Z,55.35
2023-05-09T07:42:46.008Z,55.63
2023-05-09T07:43:47.355Z,55.32
2023-05-09T07:44:46.746Z,55.13
2023-05-09T07:45:47.613Z,55.80
2023-05-09T07:46:48.880Z,55.37
2023-05-09T07:47:49.190Z,53.77
2023-05-09T07:48:48.871Z,54.27
2023-05-09T07:49:49.799Z,53.77
2023-05-09T07:50:48.283Z,53.77
2023-05-09T07:51:50.193Z,54.39
2023-05-09T07:52:50.123Z,55.78
2023-05-09T07:53:49.497Z,58.24
2023-05-09T07:54:51.576Z,58.14
2023-05-09T07:55:50.256Z,58.22
2023-05-09T07:56:51.687Z,57.66
2023-05-09T07:57:50.781Z,56.35
2023-05-09T07:58:54.333Z,56.85
2023-05-09T07:59:51.820Z,55.82
2023-05-09T08:00:51.718Z,55.70
2023-05-09T08:01:51.932Z,55.40
2023-05-09T08:02:52.303Z,55.40
2023-05-09T08:03:52.224Z,55.50
2023-05-09T08:04:54.212Z,55.70
2023-05-09T08:05:56.078Z,56.63
2023-05-09T08:06:52.497Z,56.96
2023-05-09T08:07:55.244Z,57.39
2023-05-09T08:08:56.770Z,57.68
2023-05-09T08:09:53.318Z,58.29
2023-05-09T08:10:52.803Z,59.12
2023-05-09T08:11:54.569Z,59.42
2023-05-09T08:12:53.925Z,59.85
2023-05-09T08:13:54.996Z,58.94
2023-05-09T08:15:00.606Z,58.46
2023-05-09T08:15:54.312Z,57.50
2023-05-09T08:16:56.630Z,55.77
2023-05-09T08:17:56.337Z,55.74
2023-05-09T08:18:55.523Z,57.55
2023-05-09T08:19:56.316Z,55.29
2023-05-09T08:20:57.330Z,54.37
2023-05-09T08:22:06.518Z,53.94
2023-05-09T08:25:18.373Z,53.47
2023-05-09T08:25:39.087Z,54.39
2023-05-09T08:26:35.863Z,54.39
2023-05-09T08:27:38.551Z,54.79
2023-05-09T08:28:50.078Z,54.19
2023-05-09T08:29:36.704Z,55.42
2023-05-09T08:30:42.953Z,54.90
2023-05-09T08:31:37.280Z,54.77
2023-05-09T08:32:38.476Z,54.57
2023-05-09T08:33:41.235Z,53.44
2023-05-09T08:34:38.934Z,53.94
2023-05-09T08:35:38.755Z,53.34
2023-05-09T08:36:38.201Z,53.24
2023-05-09T08:37:37.924Z,53.61
2023-05-09T08:38:38.282Z,52.52
2023-05-09T08:39:41.080Z,53.24
2023-05-09T08:40:40.789Z,52.74
2023-05-09T08:41:41.263Z,53.12
2023-05-09T08:42:40.988Z,52.99
2023-05-09T08:43:40.343Z,53.09
2023-05-09T08:44:41.151Z,53.17
2023-05-09T08:45:41.194Z,52.64
2023-05-09T08:46:40.429Z,51.52
2023-05-09T08:47:42.598Z,51.20
2023-05-09T08:48:55.834Z,50.60
2023-05-09T08:49:40.897Z,50.87
2023-05-09T08:50:41.617Z,49.98
2023-05-09T08:51:40.627Z,49.78
2023-05-09T08:52:41.304Z,51.00
2023-05-09T08:53:40.920Z,50.08
2023-05-09T08:54:48.598Z,50.60
2023-05-09T08:55:44.233Z,50.60
2023-05-09T08:56:42.095Z,50.80
2023-05-09T08:57:42.570Z,50.00
2023-05-09T08:58:43.630Z,50.92
2023-05-09T08:59:43.731Z,51.35
2023-05-09T09:00:43.842Z,51.97
2023-05-09T09:01:44.525Z,52.57
2023-05-09T09:02:43.304Z,52.25
2023-05-09T09:03:44.474Z,52.34
2023-05-09T09:08:20.596Z,52.94
2023-05-09T09:08:38.894Z,51.95
2023-05-09T09:09:38.908Z,52.14
2023-05-09T09:10:57.123Z,52.44
2023-05-09T09:11:39.227Z,52.51
2023-05-09T09:12:41.025Z,50.60
2023-05-09T09:13:39.869Z,51.12
2023-05-09T09:14:39.262Z,50.80
2023-05-09T09:15:39.847Z,49.78
2023-05-09T09:16:40.404Z,49.88
2023-05-09T09:17:40.503Z,50.98
2023-05-09T09:18:40.936Z,51.07
2023-05-09T09:19:40.790Z,51.59
2023-05-09T09:20:40.504Z,50.80
2023-05-09T09:21:41.044Z,50.90
2023-05-09T09:22:42.085Z,51.12
2023-05-09T09:23:42.068Z,51.54
2023-05-09T09:24:43.746Z,52.57
2023-05-09T09:25:41.235Z,53.09
2023-05-09T09:26:51.319Z,53.59
2023-05-09T09:28:33.285Z,52.97
2023-05-09T09:28:52.179Z,52.97
2023-05-09T09:29:51.559Z,52.99
2023-05-09T09:30:52.568Z,53.54
2023-05-09T09:31:52.334Z,53.02
2023-05-09T09:32:51.995Z,51.17
2023-05-09T09:33:53.784Z,50.57
2023-05-09T09:34:54.662Z,50.38
2023-05-09T09:35:54.235Z,50.68
2023-05-09T09:36:53.479Z,51.35
2023-05-09T09:37:53.105Z,51.47
2023-05-09T09:38:54.962Z,52.00
2023-05-09T09:39:54.187Z,51.67
2023-05-09T09:40:55.201Z,52.39
2023-05-09T09:42:03.764Z,52.89
2023-05-09T09:42:55.063Z,52.27
2023-05-09T09:43:57.490Z,52.47
2023-05-09T09:44:55.105Z,51.97
2023-05-09T09:46:01.407Z,52.17
2023-05-09T09:46:55.370Z,52.37
2023-05-09T09:47:56.124Z,52.17
2023-05-09T09:48:55.922Z,52.29
2023-05-09T09:49:56.953Z,52.89
2023-05-09T09:50:56.658Z,52.86
2023-05-09T09:51:57.012Z,52.97
2023-05-09T09:52:57.374Z,54.26
2023-05-09T09:53:57.636Z,52.89
2023-05-09T09:54:59.965Z,52.39
2023-05-09T09:55:57.841Z,53.09
2023-05-09T09:56:59.842Z,52.42
2023-05-09T09:57:59.014Z,52.72
2023-05-09T09:58:57.286Z,52.44
2023-05-09T10:00:00.588Z,53.66
2023-05-09T10:01:14.313Z,53.96
2023-05-09T10:02:03.995Z,53.96
2023-05-09T10:03:05.309Z,54.57
2023-05-09T10:04:00.764Z,53.34
2023-05-09T10:05:16.893Z,53.44
2023-05-09T10:06:33.478Z,53.34
2023-05-09T10:07:00.393Z,53.47
2023-05-09T10:08:01.160Z,53.56
2023-05-09T10:09:01.705Z,53.84
2023-05-09T10:11:01.778Z,53.64
2023-05-09T10:12:08.349Z,54.44
2023-05-09T10:14:42.077Z,53.99
2023-05-09T10:16:43.060Z,54.89
2023-05-09T10:17:02.035Z,55.09
2023-05-09T10:18:02.045Z,54.59
2023-05-09T10:19:31.348Z,54.99
2023-05-09T10:20:03.081Z,54.96
2023-05-09T10:21:03.608Z,53.77
2023-05-09T10:22:02.795Z,54.44
2023-05-09T10:23:03.480Z,53.84
2023-05-09T10:24:04.612Z,53.91
2023-05-09T10:25:03.251Z,53.22
2023-05-09T10:26:07.204Z,53.49
2023-05-09T10:27:02.954Z,53.29
2023-05-09T10:28:03.679Z,53.66
2023-05-09T10:29:04.145Z,52.44
2023-05-09T10:31:05.432Z,51.82
2023-05-09T10:32:40.970Z,50.73
2023-05-09T10:33:05.888Z,51.30
2023-05-09T10:34:12.945Z,50.70
2023-05-09T10:35:04.383Z,50.63
2023-05-09T10:36:06.146Z,50.93
2023-05-09T10:37:05.515Z,51.15
2023-05-09T10:38:06.293Z,51.57
2023-05-09T10:39:05.235Z,52.07
2023-05-09T10:40:16.655Z,52.59
2023-05-09T10:41:07.140Z,52.97
2023-05-09T10:42:07.900Z,52.69
2023-05-09T10:43:07.146Z,52.92
2023-05-09T10:44:53.932Z,53.02
2023-05-09T10:45:12.534Z,53.41
2023-05-09T10:46:11.723Z,53.44
2023-05-09T10:47:14.547Z,53.74
2023-05-09T10:48:11.503Z,53.44
2023-05-09T10:49:14.519Z,53.86
2023-05-09T10:50:12.273Z,54.27
2023-05-09T10:51:26.966Z,54.04
2023-05-09T10:52:11.900Z,53.34
2023-05-09T10:53:14.210Z,53.34
2023-05-09T10:54:13.982Z,53.84
2023-05-09T10:55:25.901Z,54.76
2023-05-09T10:56:17.436Z,54.66
2023-05-09T10:57:17.334Z,55.96
2023-05-09T10:58:19.132Z,55.58
2023-05-09T10:59:14.537Z,55.79
2023-05-09T11:00:14.862Z,56.36
2023-05-09T11:01:15.389Z,55.46
2023-05-09T11:02:16.600Z,55.66
2023-05-09T11:03:16.840Z,55.56
2023-05-09T11:04:19.476Z,54.61
2023-05-09T11:05:19.325Z,56.14
2023-05-09T11:06:19.350Z,56.37
2023-05-09T11:07:16.182Z,57.07
2023-05-09T11:08:16.990Z,56.74
2023-05-09T11:09:17.377Z,56.54
2023-05-09T11:10:17.482Z,56.74
2023-05-09T11:11:18.470Z,55.84
2023-05-09T11:12:17.281Z,55.84
2023-05-09T11:13:19.300Z,56.41
2023-05-09T11:14:44.293Z,55.81
2023-05-09T11:15:25.187Z,56.01
2023-05-09T11:16:23.225Z,55.41
2023-05-09T11:17:23.157Z,56.38
2023-05-09T11:18:22.087Z,54.99
2023-05-09T11:19:18.724Z,54.61
2023-05-09T11:20:25.239Z,55.41
2023-05-09T11:21:19.761Z,55.02
2023-05-09T11:22:25.127Z,54.91
2023-05-09T11:23:24.274Z,56.04
2023-05-09T11:24:20.774Z,55.51
2023-05-09T11:25:26.083Z,55.14
2023-05-09T11:26:21.439Z,57.04
2023-05-09T11:27:24.976Z,55.44
2023-05-09T11:28:24.405Z,56.74
2023-05-09T11:29:21.438Z,56.14
2023-05-09T11:30:25.631Z,55.84
2023-05-09T11:31:24.906Z,56.64
2023-05-09T11:32:29.755Z,56.14
2023-05-09T11:33:25.997Z,56.31
2023-05-09T11:34:27.500Z,54.71
2023-05-09T11:35:24.863Z,56.01
2023-05-09T11:36:23.861Z,56.71
2023-05-09T11:37:25.075Z,56.01
2023-05-09T11:38:24.018Z,55.74
2023-05-09T11:39:25.004Z,56.74
2023-05-09T11:40:24.390Z,56.81
2023-05-09T11:41:25.120Z,58.04
2023-05-09T11:42:26.717Z,54.94
2023-05-09T11:43:25.447Z,55.24
2023-05-09T11:44:26.560Z,55.14
2023-05-09T11:45:25.523Z,55.34
2023-05-09T11:46:27.430Z,55.44
2023-05-09T11:47:27.135Z,55.04
2023-05-09T11:48:24.378Z,55.74
2023-05-09T11:49:25.690Z,55.62
2023-05-09T11:50:23.922Z,54.82
2023-05-09T11:51:26.168Z,55.91
2023-05-09T11:52:26.433Z,54.29
2023-05-09T11:53:28.236Z,54.09
2023-05-09T11:54:27.283Z,54.32
2023-05-09T11:55:27.344Z,54.69
2023-05-09T11:56:27.629Z,54.39
2023-05-09T11:57:29.890Z,54.39
2023-05-09T11:58:28.407Z,54.29
2023-05-09T11:59:27.561Z,54.19
2023-05-09T12:00:28.582Z,53.99
2023-05-09T12:01:30.639Z,54.29
2023-05-09T12:02:31.209Z,54.59
2023-05-09T12:03:27.943Z,54.02
2023-05-09T12:04:30.446Z,54.32
2023-05-09T12:05:29.791Z,54.64
2023-05-09T12:06:30.244Z,55.04
2023-05-09T12:08:28.877Z,56.14
2023-05-09T12:09:29.579Z,56.04
2023-05-09T12:10:32.628Z,55.54
2023-05-09T12:11:30.395Z,55.84
2023-05-09T12:12:30.942Z,56.07
2023-05-09T12:13:54.437Z,56.44
2023-05-09T12:14:34.292Z,56.24
2023-05-09T12:15:31.643Z,56.94
2023-05-09T12:16:32.351Z,56.04
2023-05-09T12:17:32.092Z,56.24
2023-05-09T12:18:32.887Z,56.44
2023-05-09T12:19:31.005Z,56.31
2023-05-09T12:20:33.683Z,55.62
2023-05-09T12:21:31.822Z,55.41
2023-05-09T12:22:33.069Z,54.91
2023-05-09T12:23:32.985Z,55.19
2023-05-09T12:24:35.789Z,54.46
2023-05-09T12:25:35.772Z,54.16
2023-05-09T12:26:36.156Z,54.06
2023-05-09T12:27:36.086Z,54.06
2023-05-09T12:28:39.260Z,54.06
2023-05-09T12:29:33.392Z,54.66
2023-05-09T12:30:33.178Z,55.16
2023-05-09T12:31:33.730Z,55.76
2023-05-09T12:32:36.035Z,54.36
2023-05-09T12:33:37.511Z,58.25
2023-05-09T12:34:35.956Z,54.99
2023-05-09T12:35:37.856Z,54.69
2023-05-09T12:36:36.137Z,54.59
2023-05-09T12:37:38.703Z,54.66
2023-05-09T12:38:35.866Z,54.06
2023-05-09T12:39:37.164Z,54.16
2023-05-09T12:40:44.822Z,53.77
2023-05-09T12:41:46.774Z,54.24
2023-05-09T12:42:36.621Z,53.34
2023-05-09T12:43:50.422Z,53.84
2023-05-09T12:44:41.318Z,56.10
2023-05-09T12:45:45.493Z,55.11
2023-05-09T12:46:37.725Z,53.64
2023-05-09T12:47:46.757Z,53.34
2023-05-09T12:48:40.184Z,53.71
2023-05-09T12:49:40.825Z,53.81
2023-05-09T12:50:38.451Z,52.81
2023-05-09T12:51:38.174Z,53.59
2023-05-09T12:52:46.933Z,52.92
2023-05-09T12:53:38.571Z,53.22
2023-05-09T12:54:39.942Z,54.21
2023-05-09T12:55:39.291Z,54.51
2023-05-09T12:56:40.232Z,53.02
2023-05-09T12:57:40.166Z,53.91
2023-05-09T12:58:41.182Z,54.01
2023-05-09T12:59:39.479Z,53.91
2023-05-09T13:00:40.155Z,54.24
2023-05-09T13:01:40.473Z,53.24
2023-05-09T13:02:40.788Z,53.44
2023-05-09T13:03:41.906Z,54.21
2023-05-09T13:04:41.401Z,52.62
2023-05-09T13:05:40.941Z,53.44
2023-05-09T13:06:40.631Z,53.24
2023-05-09T13:07:40.269Z,52.64
2023-05-09T13:08:41.622Z,53.84
2023-05-09T13:09:40.576Z,52.74
2023-05-09T13:10:42.210Z,52.94
2023-05-09T13:11:42.311Z,52.02